Aérodrome :
LOGIN :

S'inscrire | Disclaimer

   EN    FR    IT 

 










Légende :    VFR   VFR Marginal   IFR   IFR Intensif   IFR Très Intensif
Visi : 
Plafond : 
>= 8 km
>= 3000ft
5 à 8 km
1000 à 3000 ft
1500m à 5 km
500 à 1000 ft
800 à 1500m
200 à 500 ft
< 800m
< 200 ft
Symboles :   Orages  Brouillard  Fortes neiges  Fortes précipitations  Vent > 20 kt
SIGMETs :   Divers  Orages  Givrage  Turbulence  Onde Orograph.  Cendres Volcan.







- Altitude de l'aérodrome : 479 ft
- Code IATA : DOL
- Voir les cartes d'approche


LFRG - Deauville

DERNIER METAR :
  • 251930Z AUTO 29012KT 9999 BKN032 10/06 Q1018 NOSIG

METARs EXPIRÉS :
  • 251900Z AUTO 28011KT 9999 SCT037 SCT096 10/05 Q1018 NOSIG
  • 251830Z AUTO 29013KT 9999 FEW040 11/05 Q1017 NOSIG
  • 251800Z AUTO 30015KT CAVOK 11/05 Q1017 TEMPO 28015G27KT
  • 251730Z AUTO 30015KT 280V340 CAVOK 12/05 Q1017 TEMPO 28015G27KT
  • 251700Z AUTO 30015KT 270V330 9999 FEW040 12/06 Q1017 BECMG 28015G27KT

TAF TAF LFRG
Valide du 25 à 15h jusqu'au 26 à 00h UTC


251400Z 2515/2524 28015G27KT 9999 BKN040
BECMG 2519/2521 26012KT
ATIS : +33 2 31 65 65 36
Pas de NOTAMs connus pour ce terrain.



MET'MAP, la Météo Aéronautique d'un coup d'oeil ! - Copyright ORBIFLY Décembre 2007 - Disclaimer

ORBIFLY MET'MAP TEAM :

Programmation & Développement : Alexandra Zaïnal
Conception & Développement : Baudouin d'Aumeries
Co-Programmation & Développement : Marc-Olivier Méhu
Soutien technique & logistique : Manuel Goepfert

Contact : metmap@orbifly.com




SOURCES & CREDITS :

   NOAA